Time;durP1;ratioP1;P1;durP2;ratioP2;P2;SDS_P1;SDS_P2;PMS_P1;PMS_P2;Temp;Humidity;BMP_temperature;BMP_pressure;BME280_temperature;BME280_humidity;BME280_pressure;Samples;Min_cycle;Max_cycle;Signal;HPM_P1;HPM_P2
2021/03/14 00:23:09;;;;;;;0.90;0.88;;;3.80;99.90;;;;;;4920213;29;20246;-85
2021/03/14 00:26:05;;;;;;;1.75;0.95;;;3.90;99.90;;;;;;4938343;29;20201;-86
2021/03/14 00:31:53;;;;;;;0.88;0.80;;;3.90;99.90;;;;;;5036862;28;20289;-86
2021/03/14 00:34:24;;;;;;;1.17;0.80;;;3.90;99.90;;;;;;5044319;28;20225;-85
2021/03/14 00:36:51;;;;;;;0.70;0.70;;;3.90;99.90;;;;;;5044055;28;20227;-85
2021/03/14 00:39:18;;;;;;;0.52;0.50;;;3.80;99.90;;;;;;5044673;28;20227;-85
2021/03/14 00:41:44;;;;;;;0.50;0.50;;;3.70;99.90;;;;;;5044604;28;20237;-86
2021/03/14 00:44:10;;;;;;;0.55;0.55;;;3.60;99.90;;;;;;5044223;28;20238;-85
2021/03/14 00:46:37;;;;;;;0.65;0.65;;;3.40;99.90;;;;;;5043123;28;20194;-86
2021/03/14 00:49:03;;;;;;;0.60;0.60;;;3.30;99.90;;;;;;5040172;28;20584;-86
2021/03/14 00:51:29;;;;;;;1.30;1.00;;;3.30;99.90;;;;;;5043410;28;20213;-87
2021/03/14 00:53:58;;;;;;;0.98;0.90;;;3.20;99.90;;;;;;5045037;28;20285;-86
2021/03/14 00:56:25;;;;;;;2.47;0.68;;;3.10;99.90;;;;;;5035958;28;20266;-87
2021/03/14 00:58:51;;;;;;;0.90;0.65;;;3.20;99.90;;;;;;5040694;28;20259;-86
2021/03/14 01:01:18;;;;;;;0.80;0.80;;;3.20;99.90;;;;;;5040763;28;20245;-86
2021/03/14 01:03:44;;;;;;;0.75;0.75;;;3.30;99.90;;;;;;5041532;28;20223;-86
2021/03/14 01:06:11;;;;;;;0.60;0.60;;;3.40;99.90;;;;;;5041111;28;20213;-88
2021/03/14 01:08:37;;;;;;;0.43;0.43;;;3.40;99.90;;;;;;5040239;28;20245;-86
2021/03/14 01:11:04;;;;;;;0.50;0.50;;;3.30;99.90;;;;;;5039592;28;20319;-87
2021/03/14 01:13:31;;;;;;;0.60;0.60;;;3.30;99.90;;;;;;5037773;28;20222;-88
2021/03/14 01:15:57;;;;;;;0.65;0.65;;;3.20;99.90;;;;;;5038518;28;20258;-86
2021/03/14 01:18:23;;;;;;;1.50;0.80;;;3.20;99.90;;;;;;5037526;28;20295;-87
2021/03/14 01:20:50;;;;;;;3.42;0.93;;;3.30;99.90;;;;;;5038229;28;20246;-86
2021/03/14 01:23:16;;;;;;;0.65;0.65;;;3.20;99.90;;;;;;5037889;28;20217;-87
2021/03/14 01:25:43;;;;;;;0.60;0.50;;;3.20;99.90;;;;;;5037735;28;20236;-87
2021/03/14 01:28:13;;;;;;;0.85;0.85;;;3.30;99.90;;;;;;5036884;28;20548;-87
2021/03/14 01:30:50;;;;;;;0.60;0.60;;;3.30;99.90;;;;;;5034116;28;20228;-87
2021/03/14 01:33:23;;;;;;;0.50;0.50;;;3.40;99.90;;;;;;5034184;28;20214;-87
2021/03/14 01:36:02;;;;;;;0.50;0.50;;;3.40;99.90;;;;;;5034237;28;20251;-87
2021/03/14 02:06:45;;;;;;;0.60;0.60;;;3.00;99.90;;;;;;4851104;29;20238;-88
2021/03/14 02:13:47;;;;;;;0.40;0.40;;;3.00;99.90;;;;;;4931797;29;20203;-87
2021/03/14 02:23:14;;;;;;;1.00;0.88;;;2.80;99.90;;;;;;4913902;28;20253;-87
2021/03/14 02:25:48;;;;;;;0.70;0.70;;;2.80;99.90;;;;;;5048424;28;20634;-87
2021/03/14 02:28:19;;;;;;;0.68;0.68;;;2.80;99.90;;;;;;5050150;28;20216;-87
2021/03/14 02:30:55;;;;;;;0.70;0.52;;;2.80;99.90;;;;;;5043795;28;20311;-87
2021/03/14 02:33:32;;;;;;;0.75;0.75;;;2.70;99.90;;;;;;5036848;28;20669;-87
2021/03/14 02:36:03;;;;;;;0.60;0.60;;;2.70;99.90;;;;;;5036951;28;20221;-87
2021/03/14 02:38:30;;;;;;;3.03;0.73;;;2.70;99.90;;;;;;5038529;28;20293;-87
2021/03/14 02:40:58;;;;;;;0.70;0.70;;;2.80;99.90;;;;;;5038968;28;20216;-86
2021/03/14 02:43:26;;;;;;;0.82;0.80;;;2.80;99.90;;;;;;5037652;28;20583;-88
2021/03/14 02:45:54;;;;;;;0.63;0.50;;;2.80;99.90;;;;;;5037238;28;20233;-87
2021/03/14 02:48:22;;;;;;;0.73;0.73;;;2.80;99.90;;;;;;5035788;28;20271;-87
2021/03/14 02:50:49;;;;;;;6.10;1.27;;;2.80;99.90;;;;;;5035814;28;20222;-89
2021/03/14 02:53:16;;;;;;;0.60;0.60;;;2.80;99.90;;;;;;5039687;28;20270;-87
2021/03/14 02:55:46;;;;;;;1.30;1.00;;;2.70;99.90;;;;;;5041292;28;20200;-86
2021/03/14 02:58:15;;;;;;;0.55;0.55;;;2.70;99.90;;;;;;5041499;28;20284;-86
2021/03/14 03:00:44;;;;;;;3.42;0.82;;;2.70;99.90;;;;;;5039384;28;20224;-87
2021/03/14 03:03:12;;;;;;;1.13;0.70;;;2.70;99.90;;;;;;5036779;28;20203;-86
2021/03/14 03:05:39;;;;;;;0.88;0.88;;;2.70;99.90;;;;;;5038379;28;20235;-88
2021/03/14 03:08:07;;;;;;;4.97;0.88;;;2.80;99.90;;;;;;5038288;28;20240;-87
2021/03/14 03:10:37;;;;;;;0.77;0.77;;;2.80;99.90;;;;;;5036877;28;20260;-87
2021/03/14 03:13:05;;;;;;;0.82;0.82;;;2.80;99.90;;;;;;5037596;28;20268;-88
2021/03/14 03:15:31;;;;;;;0.77;0.70;;;2.80;99.90;;;;;;5035818;28;20216;-88
2021/03/14 03:18:00;;;;;;;0.70;0.70;;;2.80;99.90;;;;;;5037653;28;20211;-87
2021/03/14 03:20:27;;;;;;;1.15;1.05;;;2.70;99.90;;;;;;5044716;28;20686;-88
2021/03/14 03:22:55;;;;;;;0.73;0.73;;;2.80;99.90;;;;;;5042556;28;20266;-87
2021/03/14 03:25:22;;;;;;;1.00;1.00;;;2.70;99.90;;;;;;5044657;28;20216;-87
2021/03/14 03:27:49;;;;;;;0.90;0.90;;;2.60;99.90;;;;;;5043727;28;20199;-87
2021/03/14 03:30:17;;;;;;;2.13;1.02;;;2.50;99.90;;;;;;5039276;28;20228;-89
2021/03/14 03:32:44;;;;;;;0.95;0.93;;;2.40;99.90;;;;;;5037980;28;20206;-87
2021/03/14 03:35:14;;;;;;;1.13;1.05;;;2.50;99.90;;;;;;5038939;28;20213;-87
2021/03/14 03:37:40;;;;;;;1.60;1.50;;;2.50;99.90;;;;;;5037527;28;20285;-87
2021/03/14 03:40:10;;;;;;;1.95;1.75;;;2.50;99.90;;;;;;5038057;28;20232;-87
2021/03/14 03:42:45;;;;;;;1.45;1.35;;;2.50;99.90;;;;;;5036661;28;20295;-87
2021/03/14 03:45:13;;;;;;;1.25;1.13;;;2.60;99.90;;;;;;5037931;28;20250;-88
2021/03/14 03:47:42;;;;;;;1.20;1.08;;;2.60;99.90;;;;;;5042352;28;20704;-88
2021/03/14 03:50:09;;;;;;;1.02;1.02;;;2.70;99.90;;;;;;5043223;28;20730;-88
2021/03/14 03:52:39;;;;;;;1.45;1.30;;;2.70;99.90;;;;;;5043678;28;20200;-88
2021/03/14 03:55:11;;;;;;;1.50;1.40;;;2.70;99.90;;;;;;5041842;28;20201;-89
2021/03/14 03:57:39;;;;;;;1.13;1.13;;;2.90;99.90;;;;;;5040705;28;20228;-87
2021/03/14 04:00:29;;;;;;;0.95;0.95;;;2.90;99.90;;;;;;5041539;28;20240;-87
2021/03/14 04:03:10;;;;;;;1.80;0.90;;;3.00;99.90;;;;;;5034954;28;20559;-88
2021/03/14 04:11:09;;;;;;;1.05;1.00;;;3.10;99.90;;;;;;5036401;28;20679;-87
2021/03/14 04:13:47;;;;;;;1.23;1.10;;;3.10;99.90;;;;;;5039177;28;20229;-87
2021/03/14 04:16:19;;;;;;;1.95;1.35;;;3.20;99.90;;;;;;5038402;28;20240;-87
2021/03/14 04:18:56;;;;;;;1.35;1.25;;;3.10;99.90;;;;;;5038961;28;20202;-87
2021/03/14 04:21:28;;;;;;;2.08;1.85;;;3.20;99.90;;;;;;5038449;28;20227;-87
2021/03/14 04:24:00;;;;;;;1.38;1.38;;;3.30;99.90;;;;;;5040019;28;20206;-87
2021/03/14 04:26:27;;;;;;;1.40;1.30;;;3.30;99.90;;;;;;5042069;28;20241;-89
2021/03/14 04:29:01;;;;;;;1.63;1.52;;;3.40;99.90;;;;;;5042276;28;20210;-87
2021/03/14 04:31:29;;;;;;;2.47;2.13;;;3.30;99.90;;;;;;5041521;28;20201;-87
2021/03/14 04:34:06;;;;;;;1.50;1.10;;;3.30;99.90;;;;;;5040943;28;20202;-87
2021/03/14 04:36:46;;;;;;;1.63;1.52;;;3.40;99.90;;;;;;5034489;28;20222;-87
2021/03/14 04:39:14;;;;;;;2.53;1.50;;;3.40;99.90;;;;;;5040191;28;20231;-88
2021/03/14 04:41:52;;;;;;;1.52;1.42;;;3.40;99.90;;;;;;5039590;28;20210;-87
2021/03/14 04:44:22;;;;;;;2.42;2.22;;;3.30;99.90;;;;;;5042709;28;20684;-87
2021/03/14 04:46:48;;;;;;;2.05;1.83;;;3.30;99.90;;;;;;5042881;28;20275;-87
2021/03/14 04:49:21;;;;;;;1.55;1.45;;;3.30;99.90;;;;;;5042431;28;20362;-87
2021/03/14 04:52:09;;;;;;;1.50;1.40;;;3.20;99.90;;;;;;5038473;28;20207;-87
2021/03/14 04:54:46;;;;;;;1.70;1.60;;;3.00;99.90;;;;;;5038192;28;20688;-87
2021/03/14 04:57:41;;;;;;;1.00;0.90;;;2.90;99.90;;;;;;5035739;28;20268;-87
2021/03/14 05:00:27;;;;;;;1.30;1.20;;;2.70;99.90;;;;;;5034437;28;20236;-87
2021/03/14 05:02:58;;;;;;;1.05;1.05;;;2.70;99.90;;;;;;5034410;28;20693;-87
2021/03/14 05:05:53;;;;;;;1.55;1.45;;;2.60;99.90;;;;;;5033437;28;20300;-87
2021/03/14 05:08:27;;;;;;;1.20;1.10;;;2.40;99.90;;;;;;5025687;28;20293;-87
2021/03/14 05:10:55;;;;;;;1.45;1.20;;;2.40;99.90;;;;;;5044295;22;20234;-82
2021/03/14 05:13:21;;;;;;;1.08;1.00;;;2.40;99.90;;;;;;5015344;28;20205;-82
2021/03/14 05:15:51;;;;;;;2.92;1.02;;;2.50;99.90;;;;;;5016200;28;20217;-83
2021/03/14 05:18:20;;;;;;;1.65;1.25;;;2.50;99.90;;;;;;5015827;28;20238;-82
2021/03/14 05:20:47;;;;;;;1.10;1.00;;;2.40;99.90;;;;;;5015613;28;20232;-83
2021/03/14 05:23:15;;;;;;;1.00;0.90;;;2.40;99.90;;;;;;5016251;28;20261;-82
2021/03/14 05:25:42;;;;;;;1.05;0.77;;;2.30;99.90;;;;;;5016181;28;20581;-81
2021/03/14 05:28:09;;;;;;;0.70;0.70;;;2.30;99.90;;;;;;5016298;28;20209;-80
2021/03/14 05:30:36;;;;;;;1.02;1.02;;;2.30;99.90;;;;;;5016305;28;20272;-83
2021/03/14 05:33:03;;;;;;;0.77;0.70;;;2.20;99.90;;;;;;5015090;28;20211;-83
2021/03/14 05:35:31;;;;;;;0.88;0.55;;;2.20;99.90;;;;;;5015151;28;20584;-82
2021/03/14 05:37:58;;;;;;;1.20;0.82;;;2.30;99.90;;;;;;5015228;28;20228;-82
2021/03/14 05:40:27;;;;;;;1.45;0.80;;;2.20;99.90;;;;;;5015211;28;20224;-83
2021/03/14 05:42:54;;;;;;;1.80;0.80;;;2.20;99.90;;;;;;5015677;28;20274;-81
2021/03/14 05:45:22;;;;;;;1.27;0.93;;;2.10;99.90;;;;;;5015611;28;20208;-81
2021/03/14 05:47:49;;;;;;;0.77;0.68;;;2.20;99.90;;;;;;5015214;28;20275;-82
2021/03/14 05:50:19;;;;;;;0.60;0.60;;;2.10;99.90;;;;;;5015438;28;20716;-82
2021/03/14 05:52:46;;;;;;;0.88;0.88;;;2.20;99.90;;;;;;5014455;28;20207;-83
2021/03/14 05:55:14;;;;;;;1.92;1.20;;;2.30;99.90;;;;;;5014657;28;20205;-84
2021/03/14 05:57:43;;;;;;;2.88;0.80;;;2.40;99.90;;;;;;5015051;28;20645;-82
2021/03/14 06:00:13;;;;;;;1.05;0.98;;;2.50;99.90;;;;;;5014504;28;20245;-82
2021/03/14 06:02:42;;;;;;;1.30;1.17;;;2.60;99.90;;;;;;5014493;28;20207;-82
2021/03/14 06:05:09;;;;;;;1.23;1.13;;;2.60;99.90;;;;;;5015261;28;20207;-83
2021/03/14 06:07:36;;;;;;;1.50;1.40;;;2.60;99.90;;;;;;5014954;28;20203;-83
2021/03/14 06:10:04;;;;;;;2.05;1.30;;;2.60;99.90;;;;;;5014250;28;20856;-83
2021/03/14 06:12:32;;;;;;;2.05;1.80;;;2.60;99.90;;;;;;5014792;28;20709;-84
2021/03/14 06:14:59;;;;;;;1.63;1.52;;;2.70;99.90;;;;;;5015022;28;20306;-83
2021/03/14 06:17:26;;;;;;;1.58;1.48;;;2.80;99.90;;;;;;5014242;28;20225;-83
2021/03/14 06:19:54;;;;;;;1.60;1.50;;;2.80;99.90;;;;;;5014343;28;20231;-83
2021/03/14 06:22:21;;;;;;;1.85;1.40;;;2.80;99.90;;;;;;5014466;28;20207;-83
2021/03/14 06:24:48;;;;;;;2.75;1.70;;;2.90;99.90;;;;;;5014582;28;20584;-82
2021/03/14 06:27:29;;;;;;;2.13;1.48;;;3.00;99.90;;;;;;5014445;28;20577;-83
2021/03/14 06:29:56;;;;;;;2.28;1.35;;;3.00;99.90;;;;;;5014697;28;20316;-83
2021/03/14 06:32:22;;;;;;;1.80;1.67;;;3.00;99.90;;;;;;5014563;28;20213;-83
2021/03/14 06:34:49;;;;;;;1.70;1.58;;;3.10;99.90;;;;;;5014700;28;20553;-83
2021/03/14 06:37:17;;;;;;;5.85;2.15;;;3.10;99.90;;;;;;5014239;28;20236;-82
2021/03/14 06:39:45;;;;;;;2.35;1.98;;;3.10;99.90;;;;;;5014461;28;20226;-82
2021/03/14 06:42:29;;;;;;;1.88;1.75;;;3.20;99.90;;;;;;5013986;28;20213;-82
2021/03/14 06:45:01;;;;;;;3.30;3.00;;;3.10;99.90;;;;;;5014802;28;20217;-81
2021/03/14 06:47:40;;;;;;;2.45;1.75;;;3.00;99.90;;;;;;5014746;28;20195;-83
2021/03/14 06:50:08;;;;;;;3.00;1.95;;;3.00;99.90;;;;;;5013890;28;20271;-82
2021/03/14 06:52:36;;;;;;;2.05;1.60;;;3.00;99.90;;;;;;5013998;28;20260;-82
2021/03/14 06:55:04;;;;;;;3.80;2.40;;;2.90;99.90;;;;;;5014322;28;20696;-82
2021/03/14 06:57:30;;;;;;;3.42;2.00;;;2.90;99.90;;;;;;5014230;28;20230;-82
2021/03/14 06:59:59;;;;;;;3.00;1.88;;;3.00;99.90;;;;;;5014655;28;20602;-81
2021/03/14 07:02:27;;;;;;;2.50;1.80;;;2.90;99.90;;;;;;5014279;28;20267;-82
2021/03/14 07:04:55;;;;;;;2.15;1.65;;;2.90;99.90;;;;;;5014330;28;20296;-82
2021/03/14 07:07:24;;;;;;;2.28;2.10;;;2.90;99.90;;;;;;5014631;28;20580;-82
2021/03/14 07:09:58;;;;;;;2.47;2.08;;;3.00;99.90;;;;;;5017429;28;20334;-82
2021/03/14 07:12:32;;;;;;;2.60;1.80;;;3.10;99.90;;;;;;5017594;28;20208;-82
2021/03/14 07:15:11;;;;;;;2.53;1.80;;;3.00;99.90;;;;;;5018691;28;20280;-81
2021/03/14 07:17:38;;;;;;;2.33;1.83;;;3.10;99.90;;;;;;5018293;28;20336;-82
2021/03/14 07:20:09;;;;;;;4.20;2.15;;;3.20;99.90;;;;;;5018498;28;20231;-82
2021/03/14 07:22:35;;;;;;;4.93;1.90;;;3.30;99.90;;;;;;5017751;28;20187;-82
2021/03/14 07:25:03;;;;;;;2.38;2.05;;;3.40;99.90;;;;;;5017893;28;20299;-81
2021/03/14 07:27:30;;;;;;;2.03;1.48;;;3.50;99.90;;;;;;5017808;28;20213;-81
2021/03/14 07:29:58;;;;;;;2.95;1.80;;;3.50;99.90;;;;;;5017612;28;20330;-81
2021/03/14 07:32:24;;;;;;;2.42;2.10;;;3.60;99.90;;;;;;5017834;28;20221;-81
2021/03/14 07:34:51;;;;;;;1.48;1.35;;;3.70;99.90;;;;;;5018450;28;20214;-81
2021/03/14 07:37:18;;;;;;;3.42;3.13;;;3.90;99.90;;;;;;5018906;28;20230;-80
2021/03/14 07:39:46;;;;;;;3.25;1.65;;;4.10;99.90;;;;;;5019015;28;20704;-81
2021/03/14 07:42:13;;;;;;;2.75;1.80;;;4.30;99.90;;;;;;5018748;28;20585;-82
2021/03/14 07:44:42;;;;;;;5.88;2.25;;;4.50;99.90;;;;;;5019705;28;20230;-84
2021/03/14 07:47:09;;;;;;;3.22;1.55;;;4.70;99.90;;;;;;5020049;28;20210;-83
2021/03/14 07:49:37;;;;;;;1.42;1.33;;;4.70;99.90;;;;;;5020041;28;20223;-83
2021/03/14 07:52:07;;;;;;;4.47;2.05;;;4.80;99.90;;;;;;5019302;28;20814;-82
2021/03/14 07:54:43;;;;;;;3.22;2.45;;;4.60;99.90;;;;;;5020027;28;20210;-82
2021/03/14 07:57:11;;;;;;;2.25;1.35;;;4.60;99.90;;;;;;5020328;28;20268;-82
2021/03/14 07:59:40;;;;;;;1.73;1.58;;;4.60;99.90;;;;;;5019542;28;20227;-83
2021/03/14 08:02:26;;;;;;;4.40;1.70;;;4.50;99.90;;;;;;5020385;28;20305;-83
2021/03/14 08:04:54;;;;;;;3.60;1.67;;;4.60;99.90;;;;;;5020541;28;20221;-83
2021/03/14 08:07:43;;;;;;;1.67;1.48;;;4.50;99.90;;;;;;5020669;28;20207;-84
2021/03/14 08:10:27;;;;;;;4.32;2.25;;;4.50;99.90;;;;;;5019946;28;20668;-83
2021/03/14 08:12:54;;;;;;;3.75;1.80;;;4.50;99.90;;;;;;5019812;28;20195;-83
2021/03/14 08:15:22;;;;;;;5.97;2.38;;;4.60;99.90;;;;;;5020666;28;20215;-83
2021/03/14 08:17:52;;;;;;;1.58;1.48;;;4.60;99.90;;;;;;5020411;28;20792;-82
2021/03/14 08:20:36;;;;;;;2.47;1.52;;;4.70;99.90;;;;;;5019527;28;20295;-84
2021/03/14 08:23:03;;;;;;;3.75;1.60;;;4.80;99.90;;;;;;5019916;28;20187;-83
2021/03/14 08:25:30;;;;;;;2.13;1.90;;;4.90;99.90;;;;;;5019620;28;20207;-82
2021/03/14 08:27:59;;;;;;;2.65;1.10;;;5.00;99.90;;;;;;5020447;28;20257;-83
2021/03/14 08:30:48;;;;;;;5.60;1.48;;;5.00;99.90;;;;;;5019576;28;20234;-84
2021/03/14 08:33:30;;;;;;;2.45;1.65;;;5.00;99.90;;;;;;5019683;28;20192;-84
2021/03/14 08:35:58;;;;;;;4.15;1.65;;;4.90;99.90;;;;;;5019638;28;20214;-83
2021/03/14 08:38:26;;;;;;;4.20;2.08;;;5.00;99.90;;;;;;5019660;28;20204;-83
2021/03/14 08:41:20;;;;;;;2.90;1.60;;;5.10;99.90;;;;;;5018975;28;20226;-84
2021/03/14 08:43:48;;;;;;;2.92;1.98;;;5.10;99.90;;;;;;5019556;28;20231;-83
2021/03/14 08:46:15;;;;;;;3.33;1.60;;;5.20;99.90;;;;;;5019898;28;20234;-83
2021/03/14 08:48:41;;;;;;;2.42;1.50;;;5.30;99.90;;;;;;5018939;28;20294;-83
2021/03/14 08:51:10;;;;;;;2.28;2.13;;;5.40;99.90;;;;;;5018843;28;20226;-83
2021/03/14 08:53:36;;;;;;;2.88;1.00;;;5.30;99.90;;;;;;5017535;28;20211;-82
2021/03/14 08:56:04;;;;;;;8.27;1.65;;;5.10;99.90;;;;;;5018508;28;20260;-83
2021/03/14 08:58:31;;;;;;;1.25;1.15;;;5.20;99.90;;;;;;5018624;28;20210;-82
2021/03/14 09:01:06;;;;;;;1.60;1.50;;;5.10;99.90;;;;;;5018598;28;20223;-83
2021/03/14 09:03:40;;;;;;;2.05;1.15;;;4.90;99.90;;;;;;5019369;28;20209;-83
2021/03/14 09:06:26;;;;;;;3.33;1.35;;;4.80;99.90;;;;;;5017884;28;20183;-83
2021/03/14 09:08:55;;;;;;;1.05;1.00;;;4.60;99.90;;;;;;5019860;28;20212;-83
2021/03/14 09:11:41;;;;;;;1.33;0.88;;;4.70;99.90;;;;;;5018544;28;20238;-83
2021/03/14 09:14:29;;;;;;;2.78;1.50;;;4.70;99.90;;;;;;5018719;28;20221;-84
2021/03/14 09:16:57;;;;;;;3.35;2.10;;;4.70;99.90;;;;;;5017946;28;20231;-84
2021/03/14 09:19:30;;;;;;;1.45;1.13;;;4.80;99.90;;;;;;5018319;28;20207;-83
2021/03/14 09:21:58;;;;;;;3.22;1.30;;;4.90;99.90;;;;;;5017828;28;20624;-83
2021/03/14 09:24:37;;;;;;;1.67;1.00;;;4.90;99.90;;;;;;5018424;28;20698;-83
2021/03/14 09:27:08;;;;;;;1.48;1.23;;;4.80;99.90;;;;;;5018608;28;20187;-82
2021/03/14 09:29:42;;;;;;;0.93;0.93;;;5.00;99.90;;;;;;5017742;28;20254;-84
2021/03/14 09:32:23;;;;;;;3.08;1.00;;;5.10;99.90;;;;;;5017378;28;20202;-83
2021/03/14 09:34:51;;;;;;;0.85;0.85;;;5.10;99.90;;;;;;5017716;28;20202;-82
2021/03/14 09:37:29;;;;;;;0.98;0.93;;;5.20;99.90;;;;;;5017694;28;20285;-84
2021/03/14 09:40:30;;;;;;;1.95;1.08;;;5.40;99.90;;;;;;5017574;28;20707;-83
2021/03/14 09:43:14;;;;;;;2.33;2.22;;;5.40;99.90;;;;;;5015032;28;20218;-86
2021/03/14 09:45:43;;;;;;;3.03;1.05;;;5.30;99.90;;;;;;5017739;28;20279;-84
2021/03/14 09:48:14;;;;;;;1.00;0.90;;;5.20;99.90;;;;;;5017668;28;20203;-84
2021/03/14 09:50:44;;;;;;;2.30;1.80;;;5.20;99.90;;;;;;5017717;28;20668;-85
2021/03/14 09:53:12;;;;;;;1.35;1.27;;;5.20;99.90;;;;;;5017192;28;20191;-85
2021/03/14 09:55:40;;;;;;;0.85;0.82;;;5.20;99.90;;;;;;5017755;28;20265;-84
2021/03/14 09:58:46;;;;;;;1.10;0.90;;;5.40;99.90;;;;;;5016771;28;20227;-84
2021/03/14 10:01:14;;;;;;;1.95;1.25;;;5.50;99.90;;;;;;5016661;28;20302;-84
2021/03/14 10:03:46;;;;;;;1.15;0.85;;;5.80;99.90;;;;;;5017122;28;20295;-84
2021/03/14 10:18:47;;;;;;;1.15;1.05;;;6.10;99.90;;;;;;4899116;29;20237;-82
2021/03/14 10:21:19;;;;;;;1.25;1.08;;;6.10;99.90;;;;;;5000751;28;20230;-84
2021/03/14 10:24:20;;;;;;;1.05;0.80;;;5.90;99.90;;;;;;5018109;28;20251;-83
2021/03/14 10:35:51;;;;;;;1.00;0.98;;;5.50;99.90;;;;;;5022807;28;20199;-85
2021/03/14 10:38:42;;;;;;;3.20;1.08;;;5.60;99.90;;;;;;5023641;28;20322;-85
2021/03/14 10:44:15;;;;;;;0.80;0.70;;;5.60;99.90;;;;;;5021068;28;20205;-84
2021/03/14 10:46:59;;;;;;;1.30;1.30;;;5.50;99.90;;;;;;5023001;28;20227;-83
2021/03/14 10:49:30;;;;;;;1.40;0.60;;;5.40;99.90;;;;;;5022929;28;20238;-82
2021/03/14 10:51:58;;;;;;;3.33;1.05;;;5.40;99.90;;;;;;5023472;28;20248;-82
2021/03/14 10:54:39;;;;;;;0.70;0.70;;;5.40;99.90;;;;;;5033251;28;20194;-82
2021/03/14 10:57:17;;;;;;;1.48;0.90;;;5.20;99.90;;;;;;5041584;28;20226;-84
2021/03/14 10:59:57;;;;;;;1.30;0.73;;;5.40;99.90;;;;;;5045962;28;20256;-84
2021/03/14 11:02:35;;;;;;;0.85;0.85;;;5.40;99.90;;;;;;5043082;28;20699;-84
2021/03/14 11:05:08;;;;;;;1.70;1.60;;;5.50;99.90;;;;;;5042627;28;20198;-85
2021/03/14 11:07:44;;;;;;;1.77;1.00;;;5.70;99.90;;;;;;5043332;28;20237;-83
2021/03/14 11:10:25;;;;;;;2.28;0.90;;;6.00;99.90;;;;;;5035212;28;20236;-84
2021/03/14 11:12:53;;;;;;;7.30;1.00;;;6.30;99.90;;;;;;5027258;28;20195;-84
2021/03/14 11:15:36;;;;;;;1.60;0.88;;;6.80;99.90;;;;;;5024942;28;20206;-84
2021/03/14 11:18:04;;;;;;;1.50;1.40;;;7.10;99.90;;;;;;5024996;28;20237;-84
2021/03/14 11:20:31;;;;;;;1.05;0.80;;;7.10;99.90;;;;;;5024907;28;20234;-84
2021/03/14 11:23:00;;;;;;;1.23;0.90;;;7.00;99.40;;;;;;5023675;28;20218;-85
2021/03/14 11:25:27;;;;;;;0.90;0.90;;;6.70;97.70;;;;;;5024611;28;20215;-82
2021/03/14 11:27:54;;;;;;;0.93;0.75;;;6.60;97.90;;;;;;5034438;28;20224;-85
2021/03/14 11:30:24;;;;;;;2.15;1.10;;;6.50;97.40;;;;;;5033948;28;20260;-84
2021/03/14 11:32:51;;;;;;;1.50;1.30;;;6.40;98.00;;;;;;5046188;28;20202;-85
2021/03/14 11:35:17;;;;;;;2.20;1.02;;;6.70;99.00;;;;;;5048972;28;20206;-85
2021/03/14 11:37:43;;;;;;;0.70;0.70;;;7.30;99.30;;;;;;5046130;28;20222;-84
2021/03/14 11:40:11;;;;;;;2.60;0.77;;;8.00;98.10;;;;;;5045942;28;20237;-84
2021/03/14 11:42:38;;;;;;;1.35;1.25;;;8.30;95.70;;;;;;5047139;28;20211;-85
2021/03/14 11:45:07;;;;;;;0.98;0.77;;;8.50;95.00;;;;;;5044965;28;20208;-82
2021/03/14 11:47:36;;;;;;;1.77;1.67;;;8.10;93.40;;;;;;5044718;28;20211;-84
2021/03/14 11:50:03;;;;;;;2.45;1.35;;;7.80;94.00;;;;;;5045059;28;20222;-84
2021/03/14 11:52:30;;;;;;;4.00;1.65;;;7.80;94.70;;;;;;5045664;28;20232;-84
2021/03/14 11:54:56;;;;;;;3.20;1.25;;;7.90;94.40;;;;;;5032747;28;20210;-82
2021/03/14 11:57:32;;;;;;;2.25;1.17;;;7.60;94.00;;;;;;5031868;28;20220;-84
2021/03/14 11:59:59;;;;;;;3.10;1.05;;;7.50;94.20;;;;;;5026582;28;20694;-84
2021/03/14 12:02:26;;;;;;;0.73;0.73;;;7.60;95.00;;;;;;5033148;28;20202;-85
2021/03/14 12:04:55;;;;;;;1.50;0.82;;;7.60;94.70;;;;;;5038391;28;20247;-84
2021/03/14 12:07:27;;;;;;;4.32;1.50;;;7.30;94.70;;;;;;5037665;28;20206;-84
2021/03/14 12:09:53;;;;;;;1.02;0.77;;;7.00;95.20;;;;;;5030306;28;20314;-84
2021/03/14 12:12:20;;;;;;;1.10;1.00;;;6.60;95.90;;;;;;5031301;28;20199;-83
2021/03/14 12:14:47;;;;;;;1.42;0.82;;;6.40;96.60;;;;;;5030025;28;20299;-85
2021/03/14 12:17:14;;;;;;;1.50;1.30;;;6.10;98.10;;;;;;5020021;28;20595;-82
2021/03/14 12:19:41;;;;;;;3.45;1.50;;;6.00;99.20;;;;;;5013379;28;20310;-83
2021/03/14 12:22:09;;;;;;;2.55;0.90;;;5.60;99.90;;;;;;5013009;28;20200;-83
2021/03/14 12:24:38;;;;;;;1.95;1.10;;;5.30;99.90;;;;;;5012925;28;20203;-82
2021/03/14 12:27:05;;;;;;;1.77;0.60;;;5.10;99.90;;;;;;5013840;28;20228;-85
2021/03/14 12:29:32;;;;;;;6.25;1.33;;;4.90;99.90;;;;;;5013485;28;20220;-83
2021/03/14 12:32:01;;;;;;;5.28;1.00;;;4.80;99.90;;;;;;5017139;28;20227;-84
2021/03/14 12:34:29;;;;;;;5.10;1.48;;;4.60;99.90;;;;;;5012017;28;20711;-84
2021/03/14 12:36:56;;;;;;;4.78;2.13;;;4.60;99.90;;;;;;5011689;28;20251;-84
2021/03/14 12:39:23;;;;;;;3.50;2.35;;;4.60;99.90;;;;;;5006285;28;20214;-85
2021/03/14 12:41:49;;;;;;;2.65;1.30;;;4.70;99.90;;;;;;5004206;28;20208;-84
2021/03/14 12:44:16;;;;;;;5.28;1.20;;;4.80;99.90;;;;;;5004027;28;20269;-84
2021/03/14 12:46:42;;;;;;;2.72;1.10;;;4.70;99.90;;;;;;5003648;28;20211;-85
2021/03/14 12:49:08;;;;;;;2.40;1.48;;;4.70;99.90;;;;;;5003587;28;20587;-83
2021/03/14 12:51:35;;;;;;;7.65;2.40;;;4.50;99.90;;;;;;5004317;28;20218;-84
2021/03/14 12:54:02;;;;;;;2.33;1.98;;;4.40;99.90;;;;;;5005413;28;20208;-84
2021/03/14 12:56:28;;;;;;;2.13;1.92;;;4.40;99.90;;;;;;5006062;28;20217;-83
2021/03/14 12:58:57;;;;;;;2.95;1.50;;;4.60;99.90;;;;;;5007917;28;20210;-83
2021/03/14 13:01:27;;;;;;;3.25;1.50;;;4.70;99.90;;;;;;5005058;28;20228;-83
2021/03/14 13:03:53;;;;;;;1.35;1.25;;;4.70;99.90;;;;;;5001105;28;20207;-85
2021/03/14 13:06:20;;;;;;;2.95;1.30;;;4.70;99.90;;;;;;5000184;28;20235;-85
2021/03/14 13:08:49;;;;;;;6.28;2.15;;;4.90;99.90;;;;;;5000522;28;20203;-85
2021/03/14 13:11:30;;;;;;;5.57;1.67;;;4.90;99.90;;;;;;5001196;28;20322;-86
2021/03/14 13:13:56;;;;;;;2.90;1.77;;;5.10;99.90;;;;;;5007687;28;20214;-83
2021/03/14 13:16:24;;;;;;;2.97;1.88;;;5.20;99.90;;;;;;5008147;28;20633;-84
2021/03/14 13:18:50;;;;;;;2.17;1.95;;;5.30;99.90;;;;;;5006681;28;20218;-84
2021/03/14 13:21:19;;;;;;;3.17;1.85;;;5.40;99.90;;;;;;5007011;28;20274;-84
2021/03/14 13:23:48;;;;;;;1.80;1.67;;;5.60;99.90;;;;;;5003918;28;20606;-85
2021/03/14 13:26:24;;;;;;;5.65;1.70;;;5.80;99.90;;;;;;5002402;28;20214;-86
2021/03/14 13:32:49;;;;;;;4.22;2.10;;;6.10;99.90;;;;;;4986770;28;20196;-85
2021/03/14 14:41:58;;;;;;;1.10;0.88;;;5.20;99.90;;;;;;4732422;30;20280;-84
2021/03/14 14:44:29;;;;;;;0.55;0.55;;;5.10;99.90;;;;;;4810523;29;20256;-85
2021/03/14 14:46:55;;;;;;;0.77;0.77;;;5.00;99.90;;;;;;4933374;29;20210;-84
2021/03/14 14:49:24;;;;;;;0.70;0.63;;;5.00;99.90;;;;;;4983657;28;20219;-85
2021/03/14 14:51:54;;;;;;;0.93;0.93;;;4.90;99.90;;;;;;5002537;28;20230;-85
2021/03/14 14:54:20;;;;;;;2.75;1.50;;;4.70;99.90;;;;;;5003357;28;20294;-83
2021/03/14 14:56:48;;;;;;;0.85;0.85;;;4.60;99.90;;;;;;5004277;28;20221;-84
2021/03/14 14:59:17;;;;;;;1.13;0.65;;;4.70;99.90;;;;;;5004231;28;20208;-84
2021/03/14 15:01:54;;;;;;;0.40;0.40;;;4.60;99.90;;;;;;5005409;28;20215;-84
2021/03/14 15:04:29;;;;;;;7.53;1.83;;;4.70;99.90;;;;;;5003989;28;20208;-84
2021/03/14 15:07:08;;;;;;;1.80;0.95;;;4.60;99.90;;;;;;5006206;28;20207;-86
2021/03/14 15:13:26;;;;;;;1.52;1.42;;;4.30;99.90;;;;;;4896959;29;20292;-86
2021/03/14 15:16:23;;;;;;;1.35;0.93;;;4.00;99.90;;;;;;4943687;29;20212;-85
2021/03/14 15:18:51;;;;;;;1.48;1.38;;;3.90;99.90;;;;;;5005418;28;20786;-84
2021/03/14 15:21:17;;;;;;;0.70;0.70;;;4.00;99.90;;;;;;5005831;28;20235;-85
2021/03/14 15:23:43;;;;;;;1.02;1.02;;;4.00;99.90;;;;;;5004092;28;20204;-85
2021/03/14 15:26:12;;;;;;;2.00;1.38;;;3.90;99.90;;;;;;5003935;28;20376;-86
2021/03/14 15:28:38;;;;;;;1.20;1.15;;;3.90;99.90;;;;;;5003316;28;20211;-85
2021/03/14 15:31:06;;;;;;;2.05;1.95;;;3.90;99.90;;;;;;5003933;28;20775;-85
2021/03/14 15:33:36;;;;;;;1.35;1.25;;;3.90;99.90;;;;;;5004953;28;20216;-86
2021/03/14 15:36:03;;;;;;;2.90;2.70;;;3.80;99.90;;;;;;5003898;28;20224;-85
2021/03/14 15:38:35;;;;;;;4.47;2.03;;;3.80;99.90;;;;;;5002727;28;20232;-84
2021/03/14 15:41:03;;;;;;;1.65;1.55;;;3.80;99.90;;;;;;5002445;28;20233;-84
2021/03/14 15:44:16;;;;;;;2.17;1.33;;;3.70;99.90;;;;;;5003939;28;20214;-84
2021/03/14 15:46:57;;;;;;;2.85;2.65;;;3.80;99.90;;;;;;4943310;29;20207;-86
2021/03/14 15:49:43;;;;;;;2.28;2.17;;;3.80;99.90;;;;;;5002882;28;20207;-85
2021/03/14 16:05:56;;;;;;;;;;;;;;;;;;;;;
2021/03/14 16:18:13;;;;;;;3.20;3.00;;;4.00;99.90;;;;;;4847441;29;20269;-83
2021/03/14 16:20:42;;;;;;;3.78;3.30;;;4.10;99.90;;;;;;4941798;29;20231;-85
2021/03/14 16:23:19;;;;;;;4.78;4.30;;;4.20;99.90;;;;;;4942541;29;20217;-85
2021/03/14 16:25:58;;;;;;;4.55;4.15;;;4.20;99.90;;;;;;4945200;29;20218;-84
2021/03/14 16:28:26;;;;;;;4.57;3.22;;;4.30;99.90;;;;;;4943204;29;20205;-85
2021/03/14 16:31:00;;;;;;;3.75;3.33;;;4.20;99.90;;;;;;4943221;29;20397;-85